createdAt,value
2022-09-26T02:06:31.040Z,34.17
2022-09-26T02:09:56.886Z,34.08
2022-09-26T02:13:06.400Z,34.17
2022-09-26T02:16:35.380Z,33.99
2022-09-26T02:20:04.943Z,34.05
2022-09-26T02:23:21.386Z,33.98
2022-09-26T02:26:48.233Z,33.86
2022-09-26T02:30:07.664Z,34.00
2022-09-26T02:33:34.212Z,34.05
2022-09-26T02:37:01.113Z,34.32
2022-09-26T02:40:28.090Z,34.79
2022-09-26T02:44:12.452Z,35.10
2022-09-26T03:59:37.628Z,38.69
2022-09-26T04:03:04.868Z,38.64
2022-09-26T04:06:31.311Z,38.80
2022-09-26T04:10:01.435Z,38.82
2022-09-26T04:22:15.144Z,38.63
2022-09-26T05:39:08.768Z,41.19
2022-09-26T07:12:14.790Z,47.52
2022-09-26T07:15:43.940Z,47.56
2022-09-26T07:19:11.321Z,47.77
2022-09-26T07:22:26.395Z,47.86
2022-09-26T07:25:53.286Z,48.21
2022-09-26T07:29:21.077Z,48.49
2022-09-26T07:32:47.546Z,48.78
2022-09-26T07:35:33.402Z,48.87
2022-09-26T07:39:00.770Z,49.01
2022-09-26T07:42:27.527Z,49.13
2022-09-26T07:45:52.094Z,49.15
2022-09-26T07:49:17.682Z,49.29
2022-09-26T07:52:53.309Z,49.44
2022-09-26T07:56:21.793Z,49.68
2022-09-26T07:59:38.984Z,49.84
2022-09-26T08:03:08.035Z,49.88
2022-09-26T08:06:38.560Z,50.02
2022-09-26T08:10:05.680Z,50.01
2022-09-26T08:13:44.170Z,50.06
2022-09-26T08:16:56.807Z,50.20
2022-09-26T08:20:26.325Z,50.40
2022-09-26T08:23:56.838Z,50.44
2022-09-26T08:27:05.117Z,50.68
2022-09-26T08:30:26.928Z,50.84
2022-09-26T08:33:56.910Z,51.07
2022-09-26T08:37:23.805Z,51.27
2022-09-26T08:40:57.961Z,51.45
2022-09-26T08:44:22.217Z,51.62
2022-09-26T08:47:51.297Z,51.87
2022-09-26T08:51:29.179Z,52.01
2022-09-26T08:54:37.447Z,52.11
2022-09-26T08:58:05.526Z,52.33
2022-09-26T09:01:27.457Z,52.42
2022-09-26T09:05:07.518Z,52.61
2022-09-26T09:08:40.522Z,52.54
2022-09-26T09:12:13.412Z,52.66
2022-09-26T09:16:01.640Z,52.78
2022-09-26T09:19:35.677Z,52.70
2022-09-26T09:23:10.430Z,52.84
2022-09-26T09:30:46.948Z,53.13
2022-09-26T09:34:11.320Z,53.22
2022-09-26T09:37:31.879Z,53.29
2022-09-26T09:41:05.760Z,53.31
2022-09-26T09:44:31.888Z,53.36
2022-09-26T09:47:58.710Z,53.53
2022-09-26T09:51:40.680Z,53.54
2022-09-26T09:55:10.804Z,53.68
2022-09-26T09:58:55.128Z,53.81
2022-09-26T10:02:30.572Z,54.04
2022-09-26T10:05:58.726Z,54.13
2022-09-26T10:09:39.857Z,54.23
2022-09-26T10:13:21.386Z,54.29
2022-09-26T10:16:53.355Z,54.43
2022-09-26T10:20:18.013Z,54.51
2022-09-26T10:23:45.043Z,54.65
2022-09-26T10:27:06.160Z,54.77
2022-09-26T10:30:39.088Z,54.98
2022-09-26T10:34:10.172Z,55.10
2022-09-26T10:37:38.765Z,55.11
2022-09-26T10:41:08.962Z,55.31
2022-09-26T10:44:36.161Z,55.43
2022-09-26T10:48:08.632Z,55.64
2022-09-26T10:51:26.972Z,55.78
2022-09-26T10:54:44.773Z,55.82
2022-09-26T10:58:15.370Z,55.91
2022-09-26T11:01:47.410Z,55.94
2022-09-26T11:05:12.344Z,55.96
2022-09-26T11:08:42.253Z,56.21
2022-09-26T11:12:11.747Z,56.42
2022-09-26T11:15:23.501Z,56.49
2022-09-26T11:18:30.853Z,56.68
2022-09-26T11:21:46.547Z,56.80
2022-09-26T11:25:27.412Z,56.93
2022-09-26T11:29:03.091Z,57.03
2022-09-26T11:32:19.732Z,57.12
2022-09-26T11:35:40.590Z,57.20
2022-09-26T11:39:17.688Z,57.27
2022-09-26T11:42:48.193Z,57.39
2022-09-26T11:46:27.823Z,57.40
2022-09-26T11:49:57.662Z,57.58
2022-09-26T11:53:20.360Z,57.69
2022-09-26T11:57:04.160Z,57.84
2022-09-26T12:00:29.267Z,57.90
2022-09-26T12:04:11.275Z,57.93
2022-09-26T12:08:01.486Z,58.07
2022-09-26T12:11:35.697Z,58.27
2022-09-26T12:14:42.084Z,58.60
2022-09-26T12:18:14.692Z,58.73
2022-09-26T12:21:47.385Z,58.87
2022-09-26T12:25:23.484Z,58.97
2022-09-26T12:28:59.089Z,59.15
2022-09-26T12:32:27.000Z,59.23
2022-09-26T12:35:38.120Z,59.30
2022-09-26T12:39:09.182Z,59.49
2022-09-26T12:42:50.369Z,59.39
2022-09-26T12:46:26.445Z,59.55
2022-09-26T12:49:51.854Z,59.64
2022-09-26T12:53:30.644Z,59.82
2022-09-26T12:56:50.250Z,59.90
2022-09-26T13:00:20.661Z,59.80
2022-09-26T13:04:03.405Z,59.84
2022-09-26T13:07:19.280Z,59.99
2022-09-26T13:10:49.603Z,60.07
2022-09-26T13:14:40.517Z,60.07
2022-09-26T13:18:02.465Z,60.19
2022-09-26T13:21:29.157Z,60.24
2022-09-26T13:24:30.687Z,60.40
2022-09-26T13:27:57.515Z,60.42
2022-09-26T13:31:19.098Z,60.65
2022-09-26T13:34:53.446Z,60.60
2022-09-26T13:37:48.948Z,60.65
2022-09-26T13:40:55.755Z,60.78
2022-09-26T13:44:14.484Z,60.79
2022-09-26T13:47:22.937Z,60.74
2022-09-26T13:51:05.291Z,61.06
2022-09-26T13:54:31.534Z,61.10
2022-09-26T13:58:09.944Z,61.16
2022-09-26T14:01:27.724Z,61.40
2022-09-26T14:04:58.495Z,61.21
2022-09-26T14:08:24.647Z,61.36
2022-09-26T14:12:03.005Z,61.39
2022-09-26T14:15:29.885Z,61.51
2022-09-26T14:19:21.820Z,61.52
2022-09-26T14:22:51.895Z,61.74
2022-09-26T14:26:17.118Z,61.96
2022-09-26T14:29:25.783Z,62.37
2022-09-26T14:32:59.598Z,62.52
2022-09-26T14:36:35.397Z,61.56
2022-09-26T14:39:48.022Z,60.12
2022-09-26T14:43:26.528Z,58.71
2022-09-26T14:47:05.420Z,57.16
2022-09-26T14:50:35.740Z,55.78
2022-09-26T14:54:05.602Z,54.46
2022-09-26T14:57:57.811Z,52.96
2022-09-26T15:01:36.434Z,51.67
2022-09-26T15:04:58.794Z,50.65
2022-09-26T15:08:18.761Z,49.70
2022-09-26T15:11:25.489Z,49.07
2022-09-26T15:14:41.777Z,48.29
2022-09-26T15:17:57.008Z,47.17
2022-09-26T15:21:13.544Z,46.83
2022-09-26T18:22:35.674Z,32.53
2022-09-26T18:25:39.871Z,32.34
2022-09-26T18:28:58.366Z,32.51
2022-09-26T18:32:17.593Z,32.06
2022-09-26T18:35:34.378Z,32.02
2022-09-26T18:38:53.148Z,31.86
2022-09-26T18:42:18.190Z,31.72
2022-09-26T18:45:25.790Z,31.54
2022-09-26T18:48:46.885Z,31.49
2022-09-26T18:52:11.946Z,31.20
2022-09-26T18:55:35.814Z,31.21
2022-09-26T18:59:00.874Z,30.80
2022-09-26T19:02:15.197Z,30.96
2022-09-26T19:05:19.860Z,30.79
2022-09-26T19:08:37.735Z,30.68
2022-09-26T19:15:06.400Z,30.31
2022-09-26T19:18:31.599Z,30.26
2022-09-26T19:21:30.053Z,29.90
2022-09-26T19:24:21.065Z,29.68
2022-09-26T19:27:46.557Z,29.65
2022-09-26T19:31:17.758Z,29.59
2022-09-26T19:34:42.832Z,29.56
2022-09-26T19:37:47.568Z,29.68
2022-09-26T19:41:22.888Z,29.51
2022-09-26T19:43:51.749Z,29.05
2022-09-26T19:46:00.419Z,29.10
2022-09-26T20:00:48.430Z,28.29
2022-09-26T20:04:11.318Z,28.26
2022-09-26T20:07:28.122Z,28.20
2022-09-26T20:11:01.514Z,28.02
2022-09-26T20:14:18.735Z,27.77
2022-09-26T20:22:50.886Z,27.41
2022-09-26T20:26:19.117Z,27.36
2022-09-26T20:55:56.801Z,26.99
2022-09-26T20:59:16.194Z,26.95
2022-09-26T21:02:50.326Z,26.95
2022-09-26T21:17:55.809Z,26.88
2022-09-26T21:21:28.017Z,26.70
2022-09-26T21:25:02.055Z,26.83
2022-09-26T21:34:11.068Z,26.28
2022-09-26T21:52:37.478Z,26.24
2022-09-26T22:10:53.470Z,25.92
2022-09-26T22:13:58.609Z,26.04
2022-09-26T22:17:21.483Z,25.58
2022-09-26T22:20:37.121Z,25.43
2022-09-26T22:24:02.910Z,25.66
2022-09-26T22:27:11.383Z,25.88
2022-09-26T22:30:27.828Z,25.78
2022-09-26T22:33:53.071Z,25.69
2022-09-26T22:39:42.969Z,25.85
2022-09-26T22:46:17.639Z,26.08
2022-09-26T22:49:32.803Z,26.02
2022-09-26T22:52:48.142Z,25.58
2022-09-26T22:55:58.325Z,25.62
2022-09-26T22:59:23.774Z,25.37
2022-09-26T23:02:22.294Z,25.31
2022-09-26T23:05:50.041Z,25.43
2022-09-26T23:09:05.716Z,25.75
2022-09-26T23:12:10.312Z,25.32
2022-09-26T23:15:25.693Z,25.49
2022-09-26T23:18:50.813Z,25.48
2022-09-26T23:22:06.730Z,25.45
2022-09-26T23:25:06.250Z,25.30
2022-09-26T23:28:24.678Z,25.40
2022-09-26T23:31:50.314Z,25.12
2022-09-26T23:35:05.457Z,24.84
2022-09-26T23:38:30.601Z,25.10
2022-09-26T23:41:55.794Z,25.18
2022-09-26T23:45:20.961Z,25.25
2022-09-26T23:48:35.271Z,25.04
2022-09-26T23:51:50.631Z,25.35
2022-09-26T23:55:15.653Z,25.56
2022-09-26T23:58:40.876Z,25.43
